Terminal Aerodrome Forecast
Issued by NWS Newport/Morehead City, NC

Home | Current Version | Previous Version | Graphics & Text | Print | Product List | Glossary On
Versions: 1 2 3 4 5 6 7 8 9 10 11 12 13 14 15 16
000
FTUS42 KMHX 261740
TAFEWN
TAF
KEWN 261740Z 2618/2718 18020G29KT P6SM OVC028
     FM261900 20015G23KT P6SM SCT030 BKN050
     FM270000 20008KT P6SM OVC150
     FM270700 21006KT 5SM -RA BR OVC008=

USA.gov is the U.S. government's official web portal to all federal, state and local government web resources and services.